sensor_id;sensor_type;location;lat;lon;timestamp;temperature;humidity
24091;DHT22;12272;52.426;17.100;2023-04-25T00:00:10;16.70;99.90
24091;DHT22;12272;52.426;17.100;2023-04-25T00:05:13;16.50;99.90
24091;DHT22;12272;52.426;17.100;2023-04-25T00:10:19;16.10;99.90
24091;DHT22;12272;52.426;17.100;2023-04-25T00:15:22;15.70;99.90
24091;DHT22;12272;52.426;17.100;2023-04-25T00:20:25;16.10;99.90
24091;DHT22;12272;52.426;17.100;2023-04-25T00:25:27;16.80;99.90
24091;DHT22;12272;52.426;17.100;2023-04-25T00:30:30;16.90;97.30
24091;DHT22;12272;52.426;17.100;2023-04-25T00:35:33;16.70;99.10
24091;DHT22;12272;52.426;17.100;2023-04-25T00:40:35;16.40;99.90
24091;DHT22;12272;52.426;17.100;2023-04-25T00:45:39;16.60;99.90
24091;DHT22;12272;52.426;17.100;2023-04-25T00:50:51;16.60;99.90
24091;DHT22;12272;52.426;17.100;2023-04-25T00:55:54;16.20;99.90
24091;DHT22;12272;52.426;17.100;2023-04-25T01:00:57;16.00;99.90
24091;DHT22;12272;52.426;17.100;2023-04-25T01:06:00;16.20;99.90
24091;DHT22;12272;52.426;17.100;2023-04-25T01:11:03;16.30;98.60
24091;DHT22;12272;52.426;17.100;2023-04-25T01:16:06;16.30;99.90
24091;DHT22;12272;52.426;17.100;2023-04-25T01:21:11;16.40;99.90
24091;DHT22;12272;52.426;17.100;2023-04-25T01:26:14;16.40;99.90
24091;DHT22;12272;52.426;17.100;2023-04-25T01:31:18;16.60;99.90
24091;DHT22;12272;52.426;17.100;2023-04-25T01:36:22;16.80;99.90
24091;DHT22;12272;52.426;17.100;2023-04-25T01:41:24;17.20;99.90
24091;DHT22;12272;52.426;17.100;2023-04-25T01:46:28;17.10;98.80
24091;DHT22;12272;52.426;17.100;2023-04-25T01:51:31;16.80;99.90
24091;DHT22;12272;52.426;17.100;2023-04-25T01:56:37;16.80;99.90
24091;DHT22;12272;52.426;17.100;2023-04-25T02:01:42;16.80;99.90
24091;DHT22;12272;52.426;17.100;2023-04-25T02:06:57;16.20;99.90
24091;DHT22;12272;52.426;17.100;2023-04-25T02:12:09;16.00;99.90
24091;DHT22;12272;52.426;17.100;2023-04-25T02:17:31;15.80;99.40
24091;DHT22;12272;52.426;17.100;2023-04-25T02:22:34;15.50;99.90
24091;DHT22;12272;52.426;17.100;2023-04-25T02:27:40;14.80;98.00
24091;DHT22;12272;52.426;17.100;2023-04-25T02:32:43;15.40;99.90
24091;DHT22;12272;52.426;17.100;2023-04-25T02:37:45;15.30;99.90
24091;DHT22;12272;52.426;17.100;2023-04-25T02:42:48;15.50;99.90
24091;DHT22;12272;52.426;17.100;2023-04-25T02:47:51;15.90;99.90
24091;DHT22;12272;52.426;17.100;2023-04-25T02:52:54;15.80;99.90
24091;DHT22;12272;52.426;17.100;2023-04-25T02:58:02;15.80;99.90
24091;DHT22;12272;52.426;17.100;2023-04-25T03:03:18;16.00;99.90
24091;DHT22;12272;52.426;17.100;2023-04-25T03:08:25;15.20;99.90
24091;DHT22;12272;52.426;17.100;2023-04-25T03:13:29;15.80;99.90
24091;DHT22;12272;52.426;17.100;2023-04-25T03:18:33;16.10;99.90
24091;DHT22;12272;52.426;17.100;2023-04-25T03:23:36;16.40;99.90
24091;DHT22;12272;52.426;17.100;2023-04-25T03:28:38;16.30;99.60
24091;DHT22;12272;52.426;17.100;2023-04-25T03:33:42;16.20;99.90
24091;DHT22;12272;52.426;17.100;2023-04-25T03:38:45;15.80;98.50
24091;DHT22;12272;52.426;17.100;2023-04-25T03:43:50;15.30;99.90
24091;DHT22;12272;52.426;17.100;2023-04-25T03:48:53;15.50;99.90
24091;DHT22;12272;52.426;17.100;2023-04-25T03:54:01;15.20;99.90
24091;DHT22;12272;52.426;17.100;2023-04-25T03:59:26;14.60;99.90
24091;DHT22;12272;52.426;17.100;2023-04-25T04:04:28;14.70;99.90
24091;DHT22;12272;52.426;17.100;2023-04-25T04:09:33;15.10;99.90
24091;DHT22;12272;52.426;17.100;2023-04-25T04:14:39;14.30;99.90
24091;DHT22;12272;52.426;17.100;2023-04-25T04:19:42;14.00;99.90
24091;DHT22;12272;52.426;17.100;2023-04-25T04:24:53;14.40;99.90
24091;DHT22;12272;52.426;17.100;2023-04-25T04:30:14;14.20;99.90
24091;DHT22;12272;52.426;17.100;2023-04-25T04:35:31;14.50;97.60
24091;DHT22;12272;52.426;17.100;2023-04-25T04:40:34;14.10;99.90
24091;DHT22;12272;52.426;17.100;2023-04-25T04:46:03;14.10;99.90
24091;DHT22;12272;52.426;17.100;2023-04-25T04:51:18;14.40;99.90
24091;DHT22;12272;52.426;17.100;2023-04-25T04:56:32;14.60;99.90
24091;DHT22;12272;52.426;17.100;2023-04-25T05:01:49;14.50;99.90
24091;DHT22;12272;52.426;17.100;2023-04-25T05:07:01;14.70;99.90
24091;DHT22;12272;52.426;17.100;2023-04-25T05:12:06;15.40;99.90
24091;DHT22;12272;52.426;17.100;2023-04-25T05:17:24;15.90;99.90
24091;DHT22;12272;52.426;17.100;2023-04-25T05:22:45;16.70;99.90
24091;DHT22;12272;52.426;17.100;2023-04-25T05:27:54;16.30;99.90
24091;DHT22;12272;52.426;17.100;2023-04-25T05:33:16;16.40;99.90
24091;DHT22;12272;52.426;17.100;2023-04-25T05:38:20;16.40;99.90
24091;DHT22;12272;52.426;17.100;2023-04-25T05:43:41;17.00;99.40
24091;DHT22;12272;52.426;17.100;2023-04-25T05:49:03;17.00;99.90
24091;DHT22;12272;52.426;17.100;2023-04-25T05:54:17;17.30;99.90
24091;DHT22;12272;52.426;17.100;2023-04-25T05:59:20;17.30;98.50
24091;DHT22;12272;52.426;17.100;2023-04-25T06:04:23;17.30;99.90
24091;DHT22;12272;52.426;17.100;2023-04-25T06:09:26;17.80;99.90
24091;DHT22;12272;52.426;17.100;2023-04-25T06:14:29;18.00;99.90
24091;DHT22;12272;52.426;17.100;2023-04-25T06:19:33;17.90;97.10
24091;DHT22;12272;52.426;17.100;2023-04-25T06:24:36;17.60;70.70
24091;DHT22;12272;52.426;17.100;2023-04-25T06:29:39;17.10;57.50
24091;DHT22;12272;52.426;17.100;2023-04-25T06:34:43;16.90;61.90
24091;DHT22;12272;52.426;17.100;2023-04-25T06:39:46;16.70;63.80
24091;DHT22;12272;52.426;17.100;2023-04-25T06:44:50;16.70;65.70
24091;DHT22;12272;52.426;17.100;2023-04-25T06:49:54;17.10;62.30
24091;DHT22;12272;52.426;17.100;2023-04-25T06:54:57;17.30;62.30
24091;DHT22;12272;52.426;17.100;2023-04-25T07:00:14;16.80;64.90
24091;DHT22;12272;52.426;17.100;2023-04-25T07:05:18;16.80;61.80
24091;DHT22;12272;52.426;17.100;2023-04-25T07:10:21;16.60;65.90
24091;DHT22;12272;52.426;17.100;2023-04-25T07:15:24;17.10;65.60
24091;DHT22;12272;52.426;17.100;2023-04-25T07:20:31;17.30;60.30
24091;DHT22;12272;52.426;17.100;2023-04-25T07:25:36;17.10;51.80
24091;DHT22;12272;52.426;17.100;2023-04-25T07:30:39;16.40;58.90
24091;DHT22;12272;52.426;17.100;2023-04-25T07:35:42;16.70;70.90
24091;DHT22;12272;52.426;17.100;2023-04-25T07:40:45;16.80;60.50
24091;DHT22;12272;52.426;17.100;2023-04-25T07:45:48;17.00;72.30
24091;DHT22;12272;52.426;17.100;2023-04-25T07:50:53;17.40;65.90
24091;DHT22;12272;52.426;17.100;2023-04-25T07:55:56;17.20;68.80
24091;DHT22;12272;52.426;17.100;2023-04-25T08:00:59;17.10;59.30
24091;DHT22;12272;52.426;17.100;2023-04-25T08:06:01;16.80;69.70
24091;DHT22;12272;52.426;17.100;2023-04-25T08:11:15;17.10;68.30
24091;DHT22;12272;52.426;17.100;2023-04-25T08:16:18;17.40;62.00
24091;DHT22;12272;52.426;17.100;2023-04-25T08:21:21;17.30;70.90
24091;DHT22;12272;52.426;17.100;2023-04-25T08:26:25;17.00;69.10
24091;DHT22;12272;52.426;17.100;2023-04-25T08:31:28;16.60;56.10
24091;DHT22;12272;52.426;17.100;2023-04-25T08:36:33;16.50;62.60
24091;DHT22;12272;52.426;17.100;2023-04-25T08:42:02;16.10;64.80
24091;DHT22;12272;52.426;17.100;2023-04-25T08:47:08;16.30;59.00
24091;DHT22;12272;52.426;17.100;2023-04-25T08:52:22;15.90;69.10
24091;DHT22;12272;52.426;17.100;2023-04-25T08:57:27;16.00;60.80
24091;DHT22;12272;52.426;17.100;2023-04-25T09:02:31;15.90;56.90
24091;DHT22;12272;52.426;17.100;2023-04-25T09:07:37;16.30;75.70
24091;DHT22;12272;52.426;17.100;2023-04-25T09:12:40;16.60;79.60
24091;DHT22;12272;52.426;17.100;2023-04-25T09:17:43;16.80;63.40
24091;DHT22;12272;52.426;17.100;2023-04-25T09:22:47;17.10;71.40
24091;DHT22;12272;52.426;17.100;2023-04-25T09:27:51;17.20;76.30
24091;DHT22;12272;52.426;17.100;2023-04-25T09:33:08;17.30;63.20
24091;DHT22;12272;52.426;17.100;2023-04-25T09:38:14;17.20;68.20
24091;DHT22;12272;52.426;17.100;2023-04-25T09:43:26;17.10;73.90
24091;DHT22;12272;52.426;17.100;2023-04-25T09:48:31;17.30;62.90
24091;DHT22;12272;52.426;17.100;2023-04-25T09:53:44;17.10;75.40
24091;DHT22;12272;52.426;17.100;2023-04-25T09:59:15;17.40;68.70
24091;DHT22;12272;52.426;17.100;2023-04-25T10:04:28;17.20;51.00
24091;DHT22;12272;52.426;17.100;2023-04-25T10:09:41;16.80;73.70
24091;DHT22;12272;52.426;17.100;2023-04-25T10:14:45;16.30;58.80
24091;DHT22;12272;52.426;17.100;2023-04-25T10:19:49;15.70;64.40
24091;DHT22;12272;52.426;17.100;2023-04-25T10:24:51;16.10;80.80
24091;DHT22;12272;52.426;17.100;2023-04-25T10:35:16;17.00;76.70
24091;DHT22;12272;52.426;17.100;2023-04-25T10:40:22;16.60;66.30
24091;DHT22;12272;52.426;17.100;2023-04-25T10:45:25;16.30;48.80
24091;DHT22;12272;52.426;17.100;2023-04-25T10:50:37;16.30;66.10
24091;DHT22;12272;52.426;17.100;2023-04-25T10:55:50;17.00;79.20
24091;DHT22;12272;52.426;17.100;2023-04-25T11:00:54;17.30;66.40
24091;DHT22;12272;52.426;17.100;2023-04-25T11:06:00;16.90;50.10
24091;DHT22;12272;52.426;17.100;2023-04-25T11:11:04;16.50;54.30
24091;DHT22;12272;52.426;17.100;2023-04-25T11:16:09;16.00;65.20
24091;DHT22;12272;52.426;17.100;2023-04-25T11:21:14;16.10;59.00
24091;DHT22;12272;52.426;17.100;2023-04-25T11:26:19;16.10;77.30
24091;DHT22;12272;52.426;17.100;2023-04-25T11:31:24;16.60;79.30
24091;DHT22;12272;52.426;17.100;2023-04-25T11:36:27;17.30;80.30
24091;DHT22;12272;52.426;17.100;2023-04-25T11:41:30;17.50;63.80
24091;DHT22;12272;52.426;17.100;2023-04-25T11:46:36;17.50;58.50
24091;DHT22;12272;52.426;17.100;2023-04-25T11:51:39;16.60;46.70
24091;DHT22;12272;52.426;17.100;2023-04-25T11:56:44;16.50;71.00
24091;DHT22;12272;52.426;17.100;2023-04-25T12:01:50;17.20;68.20
24091;DHT22;12272;52.426;17.100;2023-04-25T12:06:54;17.30;70.80
24091;DHT22;12272;52.426;17.100;2023-04-25T12:11:59;17.10;58.70
24091;DHT22;12272;52.426;17.100;2023-04-25T12:17:05;17.10;43.70
24091;DHT22;12272;52.426;17.100;2023-04-25T12:22:24;16.80;68.00
24091;DHT22;12272;52.426;17.100;2023-04-25T12:27:27;16.70;66.50
24091;DHT22;12272;52.426;17.100;2023-04-25T12:32:29;16.40;64.70
24091;DHT22;12272;52.426;17.100;2023-04-25T12:37:32;16.10;53.90
24091;DHT22;12272;52.426;17.100;2023-04-25T12:42:34;16.00;75.30
24091;DHT22;12272;52.426;17.100;2023-04-25T12:47:37;16.90;75.20
24091;DHT22;12272;52.426;17.100;2023-04-25T12:52:39;17.50;68.20
24091;DHT22;12272;52.426;17.100;2023-04-25T12:57:42;17.90;74.50
24091;DHT22;12272;52.426;17.100;2023-04-25T13:02:44;18.10;70.60
24091;DHT22;12272;52.426;17.100;2023-04-25T13:07:49;17.90;57.10
24091;DHT22;12272;52.426;17.100;2023-04-25T13:12:51;17.60;61.50
24091;DHT22;12272;52.426;17.100;2023-04-25T13:17:54;18.10;67.30
24091;DHT22;12272;52.426;17.100;2023-04-25T13:22:57;18.00;66.10
24091;DHT22;12272;52.426;17.100;2023-04-25T13:28:01;18.00;54.10
24091;DHT22;12272;52.426;17.100;2023-04-25T13:33:04;17.60;66.00
24091;DHT22;12272;52.426;17.100;2023-04-25T13:38:09;17.40;62.70
24091;DHT22;12272;52.426;17.100;2023-04-25T13:43:11;16.30;50.70
24091;DHT22;12272;52.426;17.100;2023-04-25T13:48:14;16.90;73.20
24091;DHT22;12272;52.426;17.100;2023-04-25T13:53:17;17.40;71.70
24091;DHT22;12272;52.426;17.100;2023-04-25T13:58:19;17.60;66.50
24091;DHT22;12272;52.426;17.100;2023-04-25T14:03:22;17.80;71.00
24091;DHT22;12272;52.426;17.100;2023-04-25T14:08:25;17.50;57.50
24091;DHT22;12272;52.426;17.100;2023-04-25T14:13:28;17.50;73.10
24091;DHT22;12272;52.426;17.100;2023-04-25T14:18:30;17.10;63.80
24091;DHT22;12272;52.426;17.100;2023-04-25T14:23:33;16.70;73.20
24091;DHT22;12272;52.426;17.100;2023-04-25T14:28:36;14.60;59.40
24091;DHT22;12272;52.426;17.100;2023-04-25T14:33:38;14.30;64.80
24091;DHT22;12272;52.426;17.100;2023-04-25T14:38:44;13.10;64.30
24091;DHT22;12272;52.426;17.100;2023-04-25T14:43:46;12.90;65.50
24091;DHT22;12272;52.426;17.100;2023-04-25T14:48:51;12.20;72.50
24091;DHT22;12272;52.426;17.100;2023-04-25T14:53:53;12.20;86.20
24091;DHT22;12272;52.426;17.100;2023-04-25T14:58:56;12.40;89.00
24091;DHT22;12272;52.426;17.100;2023-04-25T15:03:58;12.60;92.60
24091;DHT22;12272;52.426;17.100;2023-04-25T15:09:01;12.30;85.50
24091;DHT22;12272;52.426;17.100;2023-04-25T15:14:04;12.70;91.90
24091;DHT22;12272;52.426;17.100;2023-04-25T15:19:07;13.10;99.90
24091;DHT22;12272;52.426;17.100;2023-04-25T15:24:10;13.90;99.70
24091;DHT22;12272;52.426;17.100;2023-04-25T15:29:13;14.70;95.30
24091;DHT22;12272;52.426;17.100;2023-04-25T15:34:15;15.10;89.90
24091;DHT22;12272;52.426;17.100;2023-04-25T15:44:21;16.30;69.40
24091;DHT22;12272;52.426;17.100;2023-04-25T15:49:23;16.40;73.70
24091;DHT22;12272;52.426;17.100;2023-04-25T15:54:26;16.10;72.90
24091;DHT22;12272;52.426;17.100;2023-04-25T15:59:29;16.40;81.60
24091;DHT22;12272;52.426;17.100;2023-04-25T16:04:31;15.00;56.60
24091;DHT22;12272;52.426;17.100;2023-04-25T16:09:37;14.60;68.80
24091;DHT22;12272;52.426;17.100;2023-04-25T16:14:40;13.90;77.90
24091;DHT22;12272;52.426;17.100;2023-04-25T16:19:42;13.60;74.40
24091;DHT22;12272;52.426;17.100;2023-04-25T16:24:45;13.30;71.00
24091;DHT22;12272;52.426;17.100;2023-04-25T16:29:48;13.60;98.80
24091;DHT22;12272;52.426;17.100;2023-04-25T16:34:52;14.70;99.90
24091;DHT22;12272;52.426;17.100;2023-04-25T16:39:55;14.50;90.10
24091;DHT22;12272;52.426;17.100;2023-04-25T16:44:57;14.80;98.10
24091;DHT22;12272;52.426;17.100;2023-04-25T16:50:00;15.00;92.90
24091;DHT22;12272;52.426;17.100;2023-04-25T16:55:03;15.30;95.90
24091;DHT22;12272;52.426;17.100;2023-04-25T17:00:06;15.60;95.10
24091;DHT22;12272;52.426;17.100;2023-04-25T17:05:11;14.50;86.10
24091;DHT22;12272;52.426;17.100;2023-04-25T17:10:13;13.90;88.10
24091;DHT22;12272;52.426;17.100;2023-04-25T17:15:16;13.80;97.50
24091;DHT22;12272;52.426;17.100;2023-04-25T17:20:19;14.00;92.20
24091;DHT22;12272;52.426;17.100;2023-04-25T17:25:21;13.90;62.60
24091;DHT22;12272;52.426;17.100;2023-04-25T17:30:24;13.70;60.90
24091;DHT22;12272;52.426;17.100;2023-04-25T17:35:27;14.40;99.90
24091;DHT22;12272;52.426;17.100;2023-04-25T17:40:30;15.60;99.90
24091;DHT22;12272;52.426;17.100;2023-04-25T17:45:33;15.60;99.90
24091;DHT22;12272;52.426;17.100;2023-04-25T17:50:37;14.40;96.40
24091;DHT22;12272;52.426;17.100;2023-04-25T17:55:39;15.20;99.90
24091;DHT22;12272;52.426;17.100;2023-04-25T18:00:44;14.50;99.30
24091;DHT22;12272;52.426;17.100;2023-04-25T18:05:47;14.20;97.90
24091;DHT22;12272;52.426;17.100;2023-04-25T18:10:50;12.60;51.50
24091;DHT22;12272;52.426;17.100;2023-04-25T18:15:53;11.20;90.00
24091;DHT22;12272;52.426;17.100;2023-04-25T18:20:59;12.70;99.90
24091;DHT22;12272;52.426;17.100;2023-04-25T18:26:05;12.80;99.90
24091;DHT22;12272;52.426;17.100;2023-04-25T18:31:07;12.30;96.00
24091;DHT22;12272;52.426;17.100;2023-04-25T18:36:10;12.00;93.70
24091;DHT22;12272;52.426;17.100;2023-04-25T18:41:13;11.40;94.10
24091;DHT22;12272;52.426;17.100;2023-04-25T18:51:25;10.00;92.40
24091;DHT22;12272;52.426;17.100;2023-04-25T18:56:32;9.20;95.20
24091;DHT22;12272;52.426;17.100;2023-04-25T19:01:35;8.90;96.70
24091;DHT22;12272;52.426;17.100;2023-04-25T19:06:37;9.70;99.90
24091;DHT22;12272;52.426;17.100;2023-04-25T19:11:40;10.20;99.90
24091;DHT22;12272;52.426;17.100;2023-04-25T19:16:42;9.70;99.90
24091;DHT22;12272;52.426;17.100;2023-04-25T19:21:45;9.50;99.90
24091;DHT22;12272;52.426;17.100;2023-04-25T19:26:48;9.50;99.90
24091;DHT22;12272;52.426;17.100;2023-04-25T19:31:50;9.60;99.90
24091;DHT22;12272;52.426;17.100;2023-04-25T19:36:53;9.60;99.90
24091;DHT22;12272;52.426;17.100;2023-04-25T19:41:56;9.50;99.90
24091;DHT22;12272;52.426;17.100;2023-04-25T19:46:59;9.30;99.90
24091;DHT22;12272;52.426;17.100;2023-04-25T19:52:03;9.50;99.90
24091;DHT22;12272;52.426;17.100;2023-04-25T19:57:08;9.90;99.90
24091;DHT22;12272;52.426;17.100;2023-04-25T20:02:10;11.40;99.90
24091;DHT22;12272;52.426;17.100;2023-04-25T20:07:13;12.30;99.90
24091;DHT22;12272;52.426;17.100;2023-04-25T20:12:16;12.70;99.90
24091;DHT22;12272;52.426;17.100;2023-04-25T20:17:19;12.90;99.90
24091;DHT22;12272;52.426;17.100;2023-04-25T20:22:22;12.70;99.90
24091;DHT22;12272;52.426;17.100;2023-04-25T20:27:25;13.50;99.90
24091;DHT22;12272;52.426;17.100;2023-04-25T20:32:29;13.80;99.90
24091;DHT22;12272;52.426;17.100;2023-04-25T20:37:35;13.50;99.90
24091;DHT22;12272;52.426;17.100;2023-04-25T20:42:39;13.50;99.90
24091;DHT22;12272;52.426;17.100;2023-04-25T20:47:41;14.40;99.90
24091;DHT22;12272;52.426;17.100;2023-04-25T20:52:45;14.40;99.90
24091;DHT22;12272;52.426;17.100;2023-04-25T20:57:48;14.90;99.90
24091;DHT22;12272;52.426;17.100;2023-04-25T21:02:52;15.30;99.90
24091;DHT22;12272;52.426;17.100;2023-04-25T21:07:55;15.40;99.90
24091;DHT22;12272;52.426;17.100;2023-04-25T21:12:58;15.50;99.90
24091;DHT22;12272;52.426;17.100;2023-04-25T21:18:01;15.30;98.70
24091;DHT22;12272;52.426;17.100;2023-04-25T21:23:04;15.00;99.90
24091;DHT22;12272;52.426;17.100;2023-04-25T21:28:07;15.10;99.90
24091;DHT22;12272;52.426;17.100;2023-04-25T21:33:09;15.00;98.80
24091;DHT22;12272;52.426;17.100;2023-04-25T21:38:12;14.10;96.60
24091;DHT22;12272;52.426;17.100;2023-04-25T21:43:16;14.20;99.90
24091;DHT22;12272;52.426;17.100;2023-04-25T21:48:19;14.50;99.90
24091;DHT22;12272;52.426;17.100;2023-04-25T21:53:22;14.30;99.90
24091;DHT22;12272;52.426;17.100;2023-04-25T21:58:26;14.00;99.90
24091;DHT22;12272;52.426;17.100;2023-04-25T22:03:28;13.40;96.30
24091;DHT22;12272;52.426;17.100;2023-04-25T22:08:33;13.00;95.20
24091;DHT22;12272;52.426;17.100;2023-04-25T22:13:36;12.70;95.50
24091;DHT22;12272;52.426;17.100;2023-04-25T22:18:39;12.90;99.90
24091;DHT22;12272;52.426;17.100;2023-04-25T22:23:42;9.70;67.20
24091;DHT22;12272;52.426;17.100;2023-04-25T22:28:45;8.30;80.80
24091;DHT22;12272;52.426;17.100;2023-04-25T22:33:48;7.90;88.40
24091;DHT22;12272;52.426;17.100;2023-04-25T22:38:50;8.90;99.90
24091;DHT22;12272;52.426;17.100;2023-04-25T22:43:54;9.30;99.90
24091;DHT22;12272;52.426;17.100;2023-04-25T22:48:57;10.10;99.90
24091;DHT22;12272;52.426;17.100;2023-04-25T22:53:59;11.10;99.90
24091;DHT22;12272;52.426;17.100;2023-04-25T22:59:02;11.10;99.90
24091;DHT22;12272;52.426;17.100;2023-04-25T23:04:07;11.40;99.90
24091;DHT22;12272;52.426;17.100;2023-04-25T23:09:10;11.80;99.90
24091;DHT22;12272;52.426;17.100;2023-04-25T23:14:16;11.60;99.90
24091;DHT22;12272;52.426;17.100;2023-04-25T23:19:18;12.20;99.90
24091;DHT22;12272;52.426;17.100;2023-04-25T23:24:21;12.80;99.90
24091;DHT22;12272;52.426;17.100;2023-04-25T23:29:23;12.50;99.90
24091;DHT22;12272;52.426;17.100;2023-04-25T23:34:30;12.70;99.90
24091;DHT22;12272;52.426;17.100;2023-04-25T23:39:32;12.70;99.90
24091;DHT22;12272;52.426;17.100;2023-04-25T23:44:35;12.50;99.90
24091;DHT22;12272;52.426;17.100;2023-04-25T23:49:38;12.70;99.90
24091;DHT22;12272;52.426;17.100;2023-04-25T23:54:41;13.30;99.90
24091;DHT22;12272;52.426;17.100;2023-04-25T23:59:43;13.60;99.90
